Time;durP1;ratioP1;P1;durP2;ratioP2;P2;SDS_P1;SDS_P2;PMS_P1;PMS_P2;Temp;Humidity;BMP_temperature;BMP_pressure;BME280_temperature;BME280_humidity;BME280_pressure;Samples;Min_cycle;Max_cycle;Signal;HPM_P1;HPM_P2
2023/03/13 00:00:24;;;;;;;6.80;5.80;;;;;;;6.28;56.89;99848.28;5051317;28;20228;-65
2023/03/13 00:02:52;;;;;;;6.40;5.90;;;;;;;6.28;57.76;99854.38;5051261;28;20202;-66
2023/03/13 00:05:19;;;;;;;6.97;6.50;;;;;;;6.30;57.34;99847.13;5055371;28;20189;-65
2023/03/13 00:07:46;;;;;;;8.67;7.87;;;;;;;6.33;57.81;99853.91;5055098;28;20747;-66
2023/03/13 00:10:12;;;;;;;9.47;8.57;;;;;;;6.39;57.68;99854.09;5055215;28;20657;-66
2023/03/13 00:12:39;;;;;;;8.40;7.63;;;;;;;6.23;57.27;99851.41;5055327;28;20214;-66
2023/03/13 00:15:07;;;;;;;11.47;10.30;;;;;;;6.11;58.05;99851.81;5055626;28;20196;-66
2023/03/13 00:17:33;;;;;;;7.27;6.57;;;;;;;6.01;57.93;99862.53;5055318;28;20270;-66
2023/03/13 00:20:02;;;;;;;9.67;5.47;;;;;;;6.04;58.27;99850.81;5055306;28;20189;-65
2023/03/13 00:22:28;;;;;;;7.53;6.47;;;;;;;6.10;58.31;99860.72;5064332;28;20619;-65
2023/03/13 00:24:55;;;;;;;7.67;6.83;;;;;;;6.13;58.21;99855.97;5075087;28;20243;-65
2023/03/13 00:27:22;;;;;;;5.33;4.93;;;;;;;6.18;58.22;99858.13;5075125;28;20218;-65
2023/03/13 00:29:49;;;;;;;5.13;4.63;;;;;;;6.21;57.96;99855.19;5075096;28;20188;-65
2023/03/13 00:32:16;;;;;;;5.80;5.07;;;;;;;6.20;58.78;99851.69;5075170;28;20324;-65
2023/03/13 00:34:43;;;;;;;9.23;5.77;;;;;;;6.18;57.88;99853.69;5073845;28;20665;-66
2023/03/13 00:37:11;;;;;;;8.87;5.33;;;;;;;6.17;57.49;99846.78;5074934;28;20629;-66
2023/03/13 00:39:37;;;;;;;5.97;4.83;;;;;;;6.19;57.60;99846.59;5074616;28;20196;-66
2023/03/13 00:42:04;;;;;;;5.20;4.80;;;;;;;6.22;57.48;99846.28;5074660;28;20800;-66
2023/03/13 00:44:31;;;;;;;6.80;5.20;;;;;;;6.27;57.60;99841.34;5074523;28;20618;-66
2023/03/13 00:46:58;;;;;;;9.00;6.90;;;;;;;6.28;57.36;99840.38;5058733;28;20192;-66
2023/03/13 00:49:25;;;;;;;5.83;4.90;;;;;;;6.29;57.64;99845.47;5054446;28;20248;-66
2023/03/13 00:51:52;;;;;;;5.20;4.80;;;;;;;6.33;57.24;99840.72;5054663;28;20190;-66
2023/03/13 00:54:20;;;;;;;6.57;5.00;;;;;;;6.39;57.14;99842.69;5054220;28;20697;-66
2023/03/13 00:56:46;;;;;;;4.57;4.27;;;;;;;6.44;56.25;99837.75;5054593;28;20189;-66
2023/03/13 00:59:14;;;;;;;5.47;4.97;;;;;;;6.46;56.20;99835.78;5054395;28;20216;-66
2023/03/13 01:01:41;;;;;;;7.20;4.43;;;;;;;6.49;56.14;99846.84;5054551;28;20224;-65
2023/03/13 01:04:10;;;;;;;5.07;4.67;;;;;;;6.51;56.24;99844.03;5054302;28;20277;-66
2023/03/13 01:06:39;;;;;;;4.57;4.10;;;;;;;6.49;56.63;99841.56;5054231;28;20640;-66
2023/03/13 01:09:07;;;;;;;5.00;4.60;;;;;;;6.49;56.86;99841.56;5054312;28;20193;-66
2023/03/13 01:11:37;;;;;;;4.77;4.37;;;;;;;6.48;56.93;99839.91;5054840;28;20568;-66
2023/03/13 01:14:06;;;;;;;4.73;4.43;;;;;;;6.47;56.73;99840.06;5053894;28;20846;-66
2023/03/13 01:16:34;;;;;;;5.13;4.73;;;;;;;6.46;56.58;99841.06;5054675;28;20224;-66
2023/03/13 01:19:03;;;;;;;4.83;4.40;;;;;;;6.40;56.86;99841.72;5074104;28;20223;-66
2023/03/13 01:21:30;;;;;;;4.97;4.60;;;;;;;6.33;55.60;99838.06;5069862;28;20193;-66
2023/03/13 01:23:57;;;;;;;5.10;4.27;;;;;;;6.29;55.01;99837.56;5054012;28;20200;-66
2023/03/13 01:26:25;;;;;;;5.03;4.73;;;;;;;6.28;55.04;99854.38;5053748;28;20254;-67
2023/03/13 01:28:54;;;;;;;4.53;4.23;;;;;;;6.23;54.44;99856.66;5053934;28;20204;-67
2023/03/13 01:31:23;;;;;;;5.17;4.87;;;;;;;6.09;54.59;99856.44;5053995;28;20201;-66
2023/03/13 01:33:51;;;;;;;5.53;5.10;;;;;;;6.08;55.50;99855.59;5053156;28;20211;-66
2023/03/13 01:36:18;;;;;;;5.33;4.83;;;;;;;6.07;55.17;99850.50;5061032;28;20262;-65
2023/03/13 01:38:48;;;;;;;5.03;4.73;;;;;;;6.05;55.45;99863.84;5053813;28;20228;-66
2023/03/13 01:41:15;;;;;;;5.47;5.07;;;;;;;6.00;55.83;99860.84;5053735;28;20246;-65
2023/03/13 01:43:43;;;;;;;5.70;5.40;;;;;;;6.08;55.64;99858.25;5053682;28;20192;-66
2023/03/13 01:46:17;;;;;;;5.20;4.90;;;;;;;6.10;55.65;99868.63;5058872;28;20196;-66
2023/03/13 01:48:49;;;;;;;5.60;5.20;;;;;;;6.06;55.63;99872.56;5060722;28;20184;-66
2023/03/13 01:51:21;;;;;;;5.97;5.57;;;;;;;6.01;56.01;99873.06;5053623;28;20272;-67
2023/03/13 01:53:52;;;;;;;6.17;5.20;;;;;;;5.96;55.91;99874.53;5053383;28;20208;-66
2023/03/13 01:56:23;;;;;;;5.43;5.13;;;;;;;5.95;55.77;99867.59;5053521;28;20181;-67
2023/03/13 01:58:52;;;;;;;5.60;5.20;;;;;;;5.76;55.80;99864.16;5053015;28;20704;-66
2023/03/13 02:01:21;;;;;;;6.37;5.97;;;;;;;5.59;56.34;99870.31;5053109;28;20197;-66
2023/03/13 02:03:49;;;;;;;6.13;5.53;;;;;;;5.61;57.27;99875.44;5052885;28;20200;-66
2023/03/13 02:06:17;;;;;;;5.80;5.27;;;;;;;5.56;56.66;99875.09;5053027;28;20665;-66
2023/03/13 02:08:50;;;;;;;5.50;5.10;;;;;;;5.50;56.58;99884.44;5052845;28;20664;-66
2023/03/13 02:11:24;;;;;;;5.80;5.30;;;;;;;5.44;57.06;99890.28;5053290;28;20334;-66
2023/03/13 02:13:51;;;;;;;5.27;4.87;;;;;;;5.45;57.40;99886.72;5052718;28;20207;-66
2023/03/13 02:16:21;;;;;;;5.53;5.17;;;;;;;5.39;58.07;99897.00;5053222;28;20250;-67
2023/03/13 02:18:48;;;;;;;6.23;5.63;;;;;;;5.36;57.92;99903.41;5052583;28;20193;-67
2023/03/13 02:21:26;;;;;;;6.87;5.27;;;;;;;5.47;57.79;99907.59;5052994;28;20255;-66
2023/03/13 02:23:59;;;;;;;5.23;4.93;;;;;;;5.53;57.93;99915.75;5052606;28;20186;-66
2023/03/13 02:26:27;;;;;;;5.07;4.77;;;;;;;5.62;57.78;99904.28;5054272;28;20531;-66
2023/03/13 02:28:54;;;;;;;6.30;5.63;;;;;;;5.68;57.17;99908.91;5072699;28;20196;-66
2023/03/13 02:31:20;;;;;;;6.10;5.60;;;;;;;5.68;57.14;99916.81;5072906;28;20192;-66
2023/03/13 02:33:47;;;;;;;6.10;5.40;;;;;;;5.70;56.97;99920.16;5072238;28;20788;-67
2023/03/13 02:36:16;;;;;;;5.50;5.10;;;;;;;5.73;56.67;99927.72;5072606;28;20192;-68
2023/03/13 02:38:47;;;;;;;5.77;5.37;;;;;;;5.69;56.58;99929.00;5071203;28;20196;-66
2023/03/13 02:41:15;;;;;;;4.73;4.43;;;;;;;5.71;56.66;99927.06;5072361;28;20245;-66
2023/03/13 02:43:43;;;;;;;6.17;5.67;;;;;;;5.61;56.56;99928.13;5072487;28;20196;-66
2023/03/13 02:46:11;;;;;;;5.27;4.87;;;;;;;5.69;56.91;99938.75;5072228;28;20192;-65
2023/03/13 02:48:40;;;;;;;5.67;5.37;;;;;;;5.74;56.88;99941.72;5071213;28;20282;-67
2023/03/13 02:51:15;;;;;;;6.17;5.77;;;;;;;5.75;56.70;99952.13;5072183;28;20192;-66
2023/03/13 02:53:43;;;;;;;6.70;6.20;;;;;;;5.68;56.56;99951.06;5071944;28;20211;-66
2023/03/13 02:56:12;;;;;;;6.73;6.23;;;;;;;5.66;57.29;99946.94;5072074;28;20728;-65
2023/03/13 02:58:40;;;;;;;6.80;6.30;;;;;;;5.57;57.97;99951.31;5063865;28;20220;-66
2023/03/13 03:01:09;;;;;;;7.80;6.03;;;;;;;5.39;58.21;99955.78;5052748;28;20566;-65
2023/03/13 03:03:36;;;;;;;10.83;6.87;;;;;;;5.27;58.60;99943.84;5052243;28;20254;-65
2023/03/13 03:06:04;;;;;;;7.00;6.43;;;;;;;5.18;59.19;99952.66;5052282;28;20196;-66
2023/03/13 03:08:31;;;;;;;7.20;6.60;;;;;;;5.05;59.37;99951.34;5052180;28;20250;-66
2023/03/13 03:10:57;;;;;;;6.80;6.20;;;;;;;4.98;59.92;99961.66;5052151;28;20193;-65
2023/03/13 03:13:24;;;;;;;6.27;5.80;;;;;;;4.81;60.35;99965.09;5058610;28;20769;-64
2023/03/13 03:15:51;;;;;;;6.30;5.77;;;;;;;4.70;60.29;99972.38;5072052;28;20191;-65
2023/03/13 03:18:19;;;;;;;6.60;6.10;;;;;;;4.66;60.54;99973.66;5072096;28;20192;-67
2023/03/13 03:20:45;;;;;;;7.00;6.47;;;;;;;4.47;60.78;99969.31;5071703;28;20249;-66
2023/03/13 03:23:12;;;;;;;6.83;6.23;;;;;;;4.47;61.52;99982.47;5051824;28;20250;-66
2023/03/13 03:25:39;;;;;;;7.97;6.50;;;;;;;4.48;61.30;99978.84;5051863;28;20196;-66
2023/03/13 03:28:06;;;;;;;6.13;5.73;;;;;;;4.41;62.55;99998.81;5051976;28;20196;-65
2023/03/13 03:30:33;;;;;;;7.13;6.33;;;;;;;4.38;62.29;100001.72;5051932;28;20206;-65
2023/03/13 03:32:59;;;;;;;7.17;6.67;;;;;;;4.33;61.92;100008.41;5068901;28;20187;-66
2023/03/13 03:35:27;;;;;;;7.27;6.73;;;;;;;4.32;61.88;100015.47;5071911;28;20261;-65
2023/03/13 03:37:54;;;;;;;8.27;7.47;;;;;;;4.29;62.00;100015.75;5071605;28;20261;-66
2023/03/13 03:40:21;;;;;;;7.30;6.80;;;;;;;4.30;61.89;100025.28;5075508;28;20245;-65
2023/03/13 03:42:47;;;;;;;7.63;6.93;;;;;;;4.33;61.75;100034.69;5070047;28;20556;-66
2023/03/13 03:45:14;;;;;;;7.80;6.87;;;;;;;4.35;61.41;100030.97;5075416;28;20191;-66
2023/03/13 03:47:41;;;;;;;7.40;6.23;;;;;;;4.34;61.48;100031.91;5075514;28;20196;-66
2023/03/13 03:50:09;;;;;;;8.03;7.23;;;;;;;4.33;60.85;100038.16;5075514;28;20670;-65
2023/03/13 03:52:38;;;;;;;9.40;7.33;;;;;;;4.29;61.94;100031.50;5068237;28;20287;-67
2023/03/13 03:55:05;;;;;;;7.40;6.80;;;;;;;4.34;62.33;100033.72;5055586;28;20266;-66
2023/03/13 03:57:32;;;;;;;7.83;7.03;;;;;;;4.25;62.47;100040.66;5056098;28;20220;-65
2023/03/13 03:59:59;;;;;;;11.53;6.83;;;;;;;4.10;62.24;100042.09;5055611;28;20224;-67
2023/03/13 04:02:26;;;;;;;7.43;6.70;;;;;;;3.99;63.55;100049.28;5055330;28;20726;-66
2023/03/13 04:04:52;;;;;;;7.83;7.13;;;;;;;3.98;63.30;100048.47;5059994;28;20628;-66
2023/03/13 04:07:19;;;;;;;10.67;6.93;;;;;;;3.95;63.40;100043.50;5075810;28;20195;-66
2023/03/13 04:09:47;;;;;;;8.00;7.47;;;;;;;4.05;62.62;100059.25;5060087;28;20504;-66
2023/03/13 04:12:14;;;;;;;10.07;7.83;;;;;;;4.02;63.03;100059.53;5055474;28;20438;-65
2023/03/13 04:14:40;;;;;;;8.53;7.83;;;;;;;4.02;62.98;100059.53;5054802;28;20555;-66
2023/03/13 04:17:07;;;;;;;12.87;8.30;;;;;;;4.03;62.86;100062.03;5055252;28;20497;-65
2023/03/13 04:19:34;;;;;;;8.33;7.37;;;;;;;4.09;63.33;100066.69;5055339;28;20488;-66
2023/03/13 04:22:00;;;;;;;7.43;6.90;;;;;;;4.11;63.38;100070.03;5054863;28;20504;-66
2023/03/13 04:24:27;;;;;;;8.10;7.33;;;;;;;4.13;63.37;100068.06;5054804;28;20422;-65
2023/03/13 04:26:55;;;;;;;7.23;6.47;;;;;;;4.14;63.31;100068.91;5071490;28;20237;-66
2023/03/13 04:29:22;;;;;;;8.33;6.43;;;;;;;4.09;63.36;100079.84;5067895;28;20446;-65
2023/03/13 04:31:49;;;;;;;7.57;6.97;;;;;;;4.07;63.13;100073.91;5054452;28;20446;-66
2023/03/13 04:34:15;;;;;;;6.97;6.47;;;;;;;4.15;63.28;100081.94;5062995;28;21020;-66
2023/03/13 04:36:42;;;;;;;10.63;9.03;;;;;;;4.08;63.13;100090.50;5074371;28;20733;-65
2023/03/13 04:39:09;;;;;;;17.53;12.93;;;;;;;4.06;63.11;100100.34;5074479;28;20248;-62
2023/03/13 04:41:35;;;;;;;17.90;9.33;;;;;;;4.08;63.11;100101.00;5074691;28;20503;-64
2023/03/13 04:44:03;;;;;;;8.87;8.07;;;;;;;4.10;64.00;100104.34;5067320;28;20222;-65
2023/03/13 04:46:30;;;;;;;7.93;7.23;;;;;;;4.14;63.51;100106.56;5054698;28;20192;-65
2023/03/13 04:48:57;;;;;;;7.90;7.23;;;;;;;4.21;63.40;100112.91;5054241;28;20258;-65
2023/03/13 04:51:24;;;;;;;18.67;9.10;;;;;;;4.19;63.75;100114.84;5052729;28;20196;-64
2023/03/13 04:53:51;;;;;;;7.20;6.63;;;;;;;4.20;63.19;100110.41;5053572;28;20260;-66
2023/03/13 04:56:23;;;;;;;8.33;6.97;;;;;;;4.28;62.97;100118.41;5053460;28;20626;-65
2023/03/13 04:58:49;;;;;;;9.13;8.23;;;;;;;4.27;62.77;100112.34;5054026;28;20224;-65
2023/03/13 05:01:17;;;;;;;11.00;8.97;;;;;;;4.25;62.84;100129.25;5054303;28;20439;-65
2023/03/13 05:03:44;;;;;;;8.27;7.20;;;;;;;4.33;63.08;100117.03;5054249;28;20439;-63
2023/03/13 05:06:11;;;;;;;14.03;11.83;;;;;;;4.59;62.26;100123.34;5053853;28;20246;-63
2023/03/13 05:08:38;;;;;;;8.90;8.30;;;;;;;4.97;61.49;100127.63;5054385;28;20450;-67
2023/03/13 05:11:05;;;;;;;16.97;8.53;;;;;;;5.28;60.44;100132.47;5054107;28;20192;-64
2023/03/13 05:13:32;;;;;;;10.13;7.47;;;;;;;5.52;58.43;100129.28;5054089;28;20197;-64
2023/03/13 05:15:58;;;;;;;19.17;7.97;;;;;;;5.80;57.87;100122.97;5053644;28;20192;-64
2023/03/13 05:18:27;;;;;;;6.97;6.43;;;;;;;6.33;55.85;100141.44;5054124;28;20196;-64
2023/03/13 05:20:53;;;;;;;11.33;7.47;;;;;;;6.75;55.03;100152.94;5053866;28;20196;-64
2023/03/13 05:23:20;;;;;;;15.10;8.13;;;;;;;7.19;52.40;100157.16;5053951;28;20193;-65
2023/03/13 05:25:47;;;;;;;9.40;8.40;;;;;;;7.47;51.65;100162.06;5053559;28;20637;-64
2023/03/13 05:28:14;;;;;;;15.83;8.77;;;;;;;7.82;50.73;100163.66;5060375;28;20192;-64
2023/03/13 05:30:40;;;;;;;12.63;8.60;;;;;;;8.12;49.40;100173.59;5061270;28;20193;-65
2023/03/13 05:33:07;;;;;;;12.23;7.63;;;;;;;8.57;47.94;100168.69;5053924;28;20204;-65
2023/03/13 05:35:36;;;;;;;11.53;6.90;;;;;;;8.79;46.73;100166.19;5053151;28;20216;-65
2023/03/13 05:38:02;;;;;;;13.67;7.43;;;;;;;9.31;55.01;100159.41;5058999;28;20204;-65
2023/03/13 05:40:29;;;;;;;9.20;6.23;;;;;;;9.55;45.71;100179.69;5045000;28;20208;-69
2023/03/13 05:42:56;;;;;;;9.63;7.07;;;;;;;9.60;44.86;100185.34;5052124;28;20249;-65
2023/03/13 05:45:24;;;;;;;11.63;7.77;;;;;;;9.61;44.99;100189.63;5052469;28;20291;-65
2023/03/13 05:47:51;;;;;;;7.80;7.30;;;;;;;9.34;44.75;100192.72;5052737;28;20197;-66
2023/03/13 05:50:18;;;;;;;8.30;7.37;;;;;;;9.12;45.04;100191.63;5058897;28;20190;-66
2023/03/13 05:52:46;;;;;;;7.13;6.30;;;;;;;8.75;45.05;100187.88;5072529;28;20195;-66
2023/03/13 05:55:12;;;;;;;8.13;7.27;;;;;;;8.69;45.52;100199.97;5072221;28;20281;-65
2023/03/13 05:57:39;;;;;;;16.40;7.93;;;;;;;8.73;48.28;100200.47;5052423;28;20189;-67
2023/03/13 06:00:07;;;;;;;8.53;7.83;;;;;;;8.77;46.55;100202.63;5033451;28;20229;-66
2023/03/13 06:02:34;;;;;;;18.90;8.27;;;;;;;8.77;47.40;100205.25;5040868;28;20202;-65
2023/03/13 06:05:01;;;;;;;10.73;7.90;;;;;;;9.24;49.98;100200.03;5053017;28;20637;-65
2023/03/13 06:07:27;;;;;;;10.27;7.23;;;;;;;9.76;45.25;100206.47;5053024;28;20258;-75
2023/03/13 06:09:55;;;;;;;8.13;6.93;;;;;;;10.13;44.07;100206.63;5052542;28;20254;-67
2023/03/13 06:12:22;;;;;;;7.20;6.50;;;;;;;10.45;43.41;100209.03;5060486;28;20250;-66
2023/03/13 06:14:49;;;;;;;11.63;5.93;;;;;;;10.96;42.73;100200.28;5052565;28;20660;-66
2023/03/13 06:17:15;;;;;;;9.13;8.23;;;;;;;11.27;41.72;100211.59;5053071;28;20247;-66
2023/03/13 06:19:42;;;;;;;24.60;8.60;;;;;;;11.53;40.21;100211.13;5052984;28;20201;-65
2023/03/13 06:22:09;;;;;;;16.70;7.17;;;;;;;11.90;40.10;100214.53;5052913;28;20243;-66
2023/03/13 06:24:36;;;;;;;11.23;7.20;;;;;;;11.74;38.86;100225.38;5052386;28;20260;-66
2023/03/13 06:27:04;;;;;;;16.40;7.10;;;;;;;11.60;41.54;100218.22;5052414;28;20200;-66
2023/03/13 06:29:31;;;;;;;8.17;6.23;;;;;;;11.37;38.62;100217.47;5052169;28;20246;-67
2023/03/13 06:31:58;;;;;;;10.53;7.03;;;;;;;11.54;38.91;100223.41;5069674;28;20214;-65
2023/03/13 06:34:24;;;;;;;6.87;5.27;;;;;;;11.59;48.40;100216.53;5067557;28;20282;-70
2023/03/13 06:36:51;;;;;;;8.03;6.30;;;;;;;12.52;41.17;100223.59;5031728;28;20257;-68
2023/03/13 06:39:18;;;;;;;26.67;8.30;;;;;;;12.28;37.93;100223.13;5040848;28;20904;-65
2023/03/13 06:41:45;;;;;;;10.00;7.07;;;;;;;11.57;39.70;100215.06;5032204;28;20191;-64
2023/03/13 06:44:13;;;;;;;13.30;7.75;;;;;;;12.11;37.86;100217.22;5031430;28;20448;-66
2023/03/13 06:46:40;;;;;;;10.17;7.00;;;;;;;12.12;38.05;100224.19;5033574;28;20200;-64
2023/03/13 06:49:06;;;;;;;7.60;7.00;;;;;;;11.88;38.80;100221.84;5058464;28;20669;-68
2023/03/13 06:51:33;;;;;;;7.53;6.83;;;;;;;11.53;42.98;100214.63;5071953;28;20621;-69
2023/03/13 06:54:02;;;;;;;8.07;6.60;;;;;;;11.90;43.72;100214.53;5071621;28;20570;-67
2023/03/13 06:56:37;;;;;;;8.60;7.90;;;;;;;11.97;39.00;100225.25;5071998;28;20293;-67
2023/03/13 06:59:03;;;;;;;7.47;6.83;;;;;;;11.93;42.02;100214.16;5060383;28;20229;-68
2023/03/13 07:01:31;;;;;;;10.67;6.93;;;;;;;12.35;40.42;100214.19;5051513;28;20193;-69
2023/03/13 07:03:58;;;;;;;7.30;6.60;;;;;;;12.31;38.91;100223.59;5051614;28;20735;-69
2023/03/13 07:06:25;;;;;;;8.83;7.47;;;;;;;11.96;38.40;100197.78;5051893;28;20194;-69
2023/03/13 07:08:52;;;;;;;8.50;6.87;;;;;;;12.03;38.85;100214.66;5051808;28;20261;-67
2023/03/13 07:11:19;;;;;;;14.83;7.57;;;;;;;12.90;40.74;100198.28;5052119;28;20227;-67
2023/03/13 07:13:46;;;;;;;7.17;6.13;;;;;;;13.52;37.43;100207.13;5051027;28;20632;-68
2023/03/13 07:16:13;;;;;;;9.43;8.53;;;;;;;14.28;36.73;100209.53;5047260;28;20281;-70
2023/03/13 07:18:43;;;;;;;19.63;6.97;;;;;;;14.52;34.48;100208.94;5042082;28;20246;-70
2023/03/13 07:21:11;;;;;;;11.13;6.40;;;;;;;14.64;33.91;100207.31;5050873;28;20226;-68
2023/03/13 07:23:38;;;;;;;6.50;5.87;;;;;;;15.22;33.24;100216.34;5050743;28;20188;-69
2023/03/13 07:26:06;;;;;;;6.83;5.67;;;;;;;14.95;32.37;100212.88;5050260;28;20773;-70
2023/03/13 07:28:33;;;;;;;50.73;8.37;;;;;;;15.03;31.91;100225.22;5031867;28;20322;-68
2023/03/13 07:31:04;;;;;;;8.20;6.33;;;;;;;15.01;32.60;100217.41;5031880;28;20280;-69
2023/03/13 07:33:31;;;;;;;6.93;6.13;;;;;;;15.25;31.92;100211.41;5031762;28;20232;-68
2023/03/13 07:35:59;;;;;;;6.60;6.13;;;;;;;14.83;32.17;100227.88;5045640;28;20220;-70
2023/03/13 07:38:26;;;;;;;17.10;6.93;;;;;;;14.99;31.98;100222.13;5050404;28;20204;-73
2023/03/13 07:40:55;;;;;;;25.53;7.30;;;;;;;14.86;31.70;100210.59;5045793;28;20192;-68
2023/03/13 07:43:22;;;;;;;11.93;6.07;;;;;;;14.63;32.19;100216.34;5046312;28;20765;-70
2023/03/13 07:45:53;;;;;;;9.37;6.17;;;;;;;14.43;32.27;100210.19;5049874;28;20205;-69
2023/03/13 07:48:20;;;;;;;8.17;6.10;;;;;;;14.16;33.36;100205.75;5047700;28;20647;-69
2023/03/13 07:50:47;;;;;;;6.43;6.00;;;;;;;14.42;33.75;100211.19;5049877;28;20193;-68
2023/03/13 07:53:19;;;;;;;5.80;5.30;;;;;;;14.80;32.09;100217.63;5049261;28;20629;-69
2023/03/13 07:55:53;;;;;;;4.93;4.60;;;;;;;14.63;32.21;100208.31;5049445;28;20695;-68
2023/03/13 07:58:20;;;;;;;6.77;5.23;;;;;;;14.73;32.04;100208.75;5050632;28;20708;-68
2023/03/13 08:00:46;;;;;;;5.20;4.70;;;;;;;15.16;31.51;100211.84;5051313;28;20184;-65
2023/03/13 08:03:13;;;;;;;5.37;4.97;;;;;;;15.54;30.75;100210.13;5057728;28;20238;-69
2023/03/13 08:05:40;;;;;;;18.03;5.87;;;;;;;15.26;31.01;100207.69;5054472;28;20209;-68
2023/03/13 08:08:08;;;;;;;5.27;4.43;;;;;;;15.48;30.98;100205.63;5050696;28;20226;-69
2023/03/13 08:10:36;;;;;;;17.83;5.77;;;;;;;15.62;30.60;100186.63;5050892;28;20204;-69
2023/03/13 08:13:03;;;;;;;6.60;4.33;;;;;;;15.73;29.85;100198.53;5042478;28;20251;-68
2023/03/13 08:15:30;;;;;;;17.25;4.60;;;;;;;16.02;44.99;100172.00;5053156;28;20451;-68
2023/03/13 08:17:57;;;;;;;4.47;4.03;;;;;;;17.03;43.18;100170.88;5070587;28;20656;-68
2023/03/13 08:20:24;;;;;;;7.37;3.80;;;;;;;17.12;29.06;100187.53;5059678;28;20250;-68
2023/03/13 08:22:50;;;;;;;31.17;5.47;;;;;;;16.92;28.99;100181.50;5050846;28;20346;-67
2023/03/13 08:25:17;;;;;;;6.07;3.47;;;;;;;16.90;32.66;100181.72;5052055;28;20267;-66
2023/03/13 08:27:45;;;;;;;7.27;3.50;;;;;;;17.03;32.26;100175.44;5055922;28;20254;-66
2023/03/13 08:30:13;;;;;;;14.43;4.47;;;;;;;17.03;29.48;100173.53;5054126;28;20207;-67
2023/03/13 08:32:40;;;;;;;3.47;3.27;;;;;;;16.98;28.76;100172.59;5054114;28;20197;-68
2023/03/13 08:35:08;;;;;;;19.87;5.50;;;;;;;16.91;28.89;100179.88;5053135;28;20236;-66
2023/03/13 08:37:35;;;;;;;5.53;4.13;;;;;;;16.74;29.44;100174.22;5052854;28;20207;-67
2023/03/13 08:40:08;;;;;;;4.90;4.57;;;;;;;16.48;29.88;100170.91;5052059;28;20276;-67
2023/03/13 08:42:36;;;;;;;6.27;4.30;;;;;;;16.30;30.37;100168.97;5041158;28;20199;-67
2023/03/13 08:45:05;;;;;;;4.30;4.00;;;;;;;16.78;29.72;100177.31;5051794;28;20296;-67
2023/03/13 08:47:32;;;;;;;5.13;4.03;;;;;;;16.68;29.28;100168.91;5048800;28;20189;-68
2023/03/13 08:49:59;;;;;;;13.10;4.53;;;;;;;17.48;31.63;100171.47;5049765;28;20261;-68
2023/03/13 08:52:26;;;;;;;3.93;3.40;;;;;;;18.23;31.45;100174.44;5049639;28;20637;-69
2023/03/13 08:54:53;;;;;;;4.57;3.60;;;;;;;17.89;28.43;100175.09;5049955;28;20224;-69
2023/03/13 08:57:19;;;;;;;10.47;3.97;;;;;;;18.33;29.81;100168.50;5050568;28;20823;-67
2023/03/13 08:59:46;;;;;;;3.17;3.03;;;;;;;18.57;26.24;100170.22;5057751;28;20312;-66
2023/03/13 09:02:18;;;;;;;7.97;3.60;;;;;;;18.89;27.09;100175.06;5055418;28;20247;-66
2023/03/13 09:04:46;;;;;;;4.27;3.50;;;;;;;19.52;25.51;100175.19;5068018;28;20650;-65
2023/03/13 09:07:13;;;;;;;5.77;2.70;;;;;;;19.66;27.71;100172.00;5072610;28;20572;-65
2023/03/13 09:09:39;;;;;;;3.83;3.63;;;;;;;19.30;24.82;100187.63;5057676;28;20327;-68
2023/03/13 09:12:07;;;;;;;3.97;3.67;;;;;;;18.67;26.18;100186.63;5053888;28;20271;-67
2023/03/13 09:14:34;;;;;;;9.57;3.73;;;;;;;19.12;28.41;100179.66;5046383;28;20615;-68
2023/03/13 09:17:00;;;;;;;4.40;3.00;;;;;;;19.88;28.07;100174.84;5052840;28;20225;-67
2023/03/13 09:19:28;;;;;;;5.67;2.77;;;;;;;20.53;26.91;100173.41;5052436;28;20246;-66
2023/03/13 09:21:55;;;;;;;3.50;2.90;;;;;;;21.03;25.64;100168.06;5052588;28;20197;-66
2023/03/13 09:24:22;;;;;;;9.07;3.30;;;;;;;21.27;23.35;100167.59;5052924;28;20197;-72
2023/03/13 09:26:49;;;;;;;3.50;3.20;;;;;;;20.95;22.31;100163.88;5052354;28;20200;-70
2023/03/13 09:29:15;;;;;;;4.03;3.77;;;;;;;20.28;23.15;100164.88;5052334;28;20192;-71
2023/03/13 09:31:42;;;;;;;7.77;5.73;;;;;;;19.38;24.23;100160.31;5052463;28;20733;-71
2023/03/13 09:34:09;;;;;;;5.67;4.07;;;;;;;18.68;24.82;100151.41;5068080;28;20267;-71
2023/03/13 09:36:37;;;;;;;3.90;3.70;;;;;;;18.26;25.40;100162.41;5071028;28;20220;-73
2023/03/13 09:39:04;;;;;;;9.17;4.60;;;;;;;18.29;26.24;100156.56;5070986;28;20252;-70
2023/03/13 09:41:36;;;;;;;13.10;6.60;;;;;;;18.58;25.81;100158.41;5050686;28;20198;-69
2023/03/13 09:44:10;;;;;;;7.03;3.50;;;;;;;18.59;24.52;100155.47;5054975;28;20254;-69
2023/03/13 09:46:41;;;;;;;4.23;3.90;;;;;;;18.26;25.40;100154.31;5052135;28;20191;-69
2023/03/13 09:49:27;;;;;;;3.50;3.23;;;;;;;18.19;24.81;100156.28;5051934;28;20196;-69
2023/03/13 09:52:02;;;;;;;3.67;3.47;;;;;;;17.68;25.90;100137.16;5052263;28;20191;-67
2023/03/13 09:54:37;;;;;;;11.50;10.60;;;;;;;17.96;25.19;100134.69;5064166;28;20192;-69
2023/03/13 09:57:12;;;;;;;7.00;6.50;;;;;;;18.35;24.13;100134.16;5071097;28;20210;-68
2023/03/13 09:59:47;;;;;;;15.73;4.50;;;;;;;18.60;23.79;100124.84;5054652;28;20282;-68
2023/03/13 10:02:24;;;;;;;3.93;3.50;;;;;;;18.79;23.38;100130.94;5051444;28;20270;-68
2023/03/13 10:04:57;;;;;;;4.20;3.20;;;;;;;18.90;22.76;100127.41;5050350;28;20196;-69
2023/03/13 10:07:25;;;;;;;3.30;3.07;;;;;;;18.84;21.89;100123.81;5052952;28;20246;-67
2023/03/13 10:09:52;;;;;;;3.40;2.70;;;;;;;18.99;21.33;100120.66;5060029;28;20192;-69
2023/03/13 10:12:21;;;;;;;4.00;3.63;;;;;;;18.82;21.66;100117.00;5058379;28;20219;-68
2023/03/13 10:15:00;;;;;;;3.70;3.40;;;;;;;18.92;22.54;100107.31;5051670;28;20201;-69
2023/03/13 10:17:32;;;;;;;19.37;17.60;;;;;;;18.49;22.35;100119.41;5054761;28;20271;-67
2023/03/13 10:20:07;;;;;;;9.17;8.57;;;;;;;18.38;21.04;100125.63;5071964;28;20192;-68
2023/03/13 10:22:37;;;;;;;3.17;3.03;;;;;;;18.48;21.00;100117.78;5071272;28;20185;-69
2023/03/13 10:25:09;;;;;;;3.00;2.80;;;;;;;18.35;21.12;100107.25;5071668;28;20673;-68
2023/03/13 10:27:44;;;;;;;4.80;3.13;;;;;;;18.33;21.29;100109.34;5056281;28;20272;-67
2023/03/13 10:30:23;;;;;;;2.80;2.60;;;;;;;17.29;22.31;100099.97;5051843;28;20188;-68
2023/03/13 10:32:49;;;;;;;2.27;2.17;;;;;;;17.67;33.74;100087.13;5045267;28;20192;-68
2023/03/13 10:35:21;;;;;;;3.20;2.90;;;;;;;17.94;23.28;100097.28;5053255;28;20265;-69
2023/03/13 10:37:49;;;;;;;3.50;3.30;;;;;;;17.74;22.56;100109.34;5040727;28;20239;-70
2023/03/13 10:40:22;;;;;;;2.80;2.70;;;;;;;17.77;22.41;100101.66;5057584;28;20199;-70
2023/03/13 10:42:51;;;;;;;2.70;2.60;;;;;;;17.69;20.82;100095.78;5066329;28;20189;-68
2023/03/13 10:45:20;;;;;;;9.33;2.50;;;;;;;17.54;19.37;100092.66;5049174;28;20255;-67
2023/03/13 10:47:54;;;;;;;2.87;2.70;;;;;;;17.47;20.23;100070.47;5049496;28;20197;-68
2023/03/13 10:50:24;;;;;;;3.27;2.63;;;;;;;17.29;21.07;100078.47;5029641;28;20266;-68
2023/03/13 10:52:53;;;;;;;3.40;3.10;;;;;;;17.40;20.97;100081.25;5030317;28;20255;-68
2023/03/13 10:55:22;;;;;;;3.00;2.50;;;;;;;17.24;20.98;100071.13;5043072;28;20858;-69
2023/03/13 10:57:57;;;;;;;2.90;2.70;;;;;;;17.38;21.28;100071.75;5049897;28;20263;-69
2023/03/13 11:00:36;;;;;;;3.13;2.93;;;;;;;17.23;21.12;100076.72;5049542;28;20232;-68
2023/03/13 11:03:06;;;;;;;3.03;2.87;;;;;;;17.35;21.10;100062.28;5049492;28;20207;-69
2023/03/13 11:05:38;;;;;;;3.07;2.73;;;;;;;17.12;20.90;100061.34;5045780;28;20181;-70
2023/03/13 11:08:19;;;;;;;3.13;2.93;;;;;;;17.24;20.33;100064.91;5030255;28;20250;-70
2023/03/13 11:10:55;;;;;;;2.57;2.47;;;;;;;17.34;20.37;100060.66;5030148;28;20269;-69
2023/03/13 11:13:33;;;;;;;3.30;3.20;;;;;;;17.35;20.20;100070.34;5029980;28;20638;-68
2023/03/13 11:16:09;;;;;;;3.43;2.70;;;;;;;17.47;19.97;100049.78;5029377;28;20746;-68
2023/03/13 11:18:42;;;;;;;2.80;2.60;;;;;;;17.41;20.22;100053.38;5046007;28;20188;-69
2023/03/13 11:21:17;;;;;;;12.43;2.90;;;;;;;17.56;21.07;100040.34;5050790;28;20197;-69
2023/03/13 11:23:49;;;;;;;4.03;2.60;;;;;;;17.24;20.07;100038.06;5031310;28;20187;-68
2023/03/13 11:26:25;;;;;;;3.97;2.77;;;;;;;17.04;20.94;100032.13;5034712;28;20245;-68
2023/03/13 11:28:58;;;;;;;3.60;3.40;;;;;;;16.80;21.35;100030.31;5051082;28;20188;-69
2023/03/13 11:31:31;;;;;;;4.87;3.10;;;;;;;16.68;21.04;100026.72;5050342;28;20188;-68
2023/03/13 11:34:06;;;;;;;2.97;2.77;;;;;;;16.54;21.55;100020.66;5050898;28;20189;-68